Time;durP1;ratioP1;P1;durP2;ratioP2;P2;SDS_P1;SDS_P2;PMS_P1;PMS_P2;Temp;Humidity;BMP_temperature;BMP_pressure;BME280_temperature;BME280_humidity;BME280_pressure;Samples;Min_cycle;Max_cycle;Signal;HPM_P1;HPM_P2
2021/09/12 00:00:19;;;;;;;8.03;5.07;;;;;;;16.38;99.90;97006.19;5009561;28;20199;-64
2021/09/12 00:02:44;;;;;;;5.40;4.90;;;;;;;16.36;99.53;96999.53;5002474;28;20612;-60
2021/09/12 00:05:10;;;;;;;5.47;4.60;;;;;;;16.41;98.52;96994.28;5002488;28;20262;-63
2021/09/12 00:07:35;;;;;;;5.20;4.70;;;;;;;16.33;99.09;96998.19;5007758;28;20210;-60
2021/09/12 00:10:01;;;;;;;5.23;4.73;;;;;;;16.22;99.88;97000.00;4997446;28;20186;-60
2021/09/12 00:12:27;;;;;;;6.87;5.77;;;;;;;16.20;99.89;96998.69;5008756;28;20566;-61
2021/09/12 00:14:52;;;;;;;6.10;4.77;;;;;;;16.20;99.76;96998.69;5001343;28;20256;-60
2021/09/12 00:17:17;;;;;;;5.47;4.93;;;;;;;16.18;100.00;96995.47;5001838;28;20569;-60
2021/09/12 00:19:43;;;;;;;5.30;4.80;;;;;;;16.17;100.00;96996.53;5009734;28;20171;-60
2021/09/12 00:22:08;;;;;;;5.17;4.60;;;;;;;16.10;100.00;96995.97;4998469;28;20194;-60
2021/09/12 00:24:34;;;;;;;6.80;4.80;;;;;;;16.08;99.88;97000.72;5012269;28;20184;-60
2021/09/12 00:26:59;;;;;;;4.67;4.27;;;;;;;16.10;99.87;96993.34;5001468;28;20568;-60
2021/09/12 00:29:24;;;;;;;4.93;4.50;;;;;;;16.04;99.80;97002.28;5009265;28;20184;-60
2021/09/12 00:31:50;;;;;;;7.07;4.80;;;;;;;16.04;99.97;96994.34;4996702;28;20294;-60
2021/09/12 00:34:16;;;;;;;5.77;4.37;;;;;;;16.03;99.74;96996.19;5007296;28;20188;-60
2021/09/12 00:36:42;;;;;;;4.53;4.13;;;;;;;15.99;100.00;96996.97;4993720;28;20595;-60
2021/09/12 00:39:07;;;;;;;4.60;4.17;;;;;;;15.90;100.00;97001.13;5004400;28;20677;-59
2021/09/12 00:41:41;;;;;;;4.90;4.37;;;;;;;15.93;99.88;97001.44;4997243;28;20192;-60
2021/09/12 00:44:12;;;;;;;6.07;4.40;;;;;;;15.92;99.85;96999.03;4997767;28;20656;-60
2021/09/12 00:46:46;;;;;;;4.97;4.27;;;;;;;15.93;99.83;96996.16;5001009;28;20202;-60
2021/09/12 00:49:13;;;;;;;5.67;4.13;;;;;;;15.97;99.42;96991.13;5000393;28;20184;-60
2021/09/12 00:51:39;;;;;;;5.40;4.60;;;;;;;15.97;99.62;96991.13;5010425;28;20210;-68
2021/09/12 00:54:06;;;;;;;5.73;4.07;;;;;;;16.01;98.72;96997.50;5001360;28;20180;-60
2021/09/12 00:56:37;;;;;;;4.73;4.17;;;;;;;16.03;98.54;96988.28;5009277;28;20216;-59
2021/09/12 00:59:06;;;;;;;7.27;5.13;;;;;;;15.92;99.40;96991.09;4997849;28;20198;-60
2021/09/12 01:01:33;;;;;;;5.00;4.50;;;;;;;15.94;99.15;96996.94;4997728;28;20192;-60
2021/09/12 01:03:59;;;;;;;5.73;4.80;;;;;;;15.89;99.46;96986.31;5013036;28;20673;-60
2021/09/12 01:06:25;;;;;;;5.43;4.50;;;;;;;15.89;99.51;96987.13;4997752;28;20184;-59
2021/09/12 01:08:50;;;;;;;11.47;4.73;;;;;;;15.85;99.84;96995.81;5007740;28;20266;-60
2021/09/12 01:11:16;;;;;;;4.87;4.40;;;;;;;15.86;99.56;96990.28;5003654;28;20663;-59
2021/09/12 01:13:43;;;;;;;5.37;4.87;;;;;;;15.86;99.49;96986.84;5013155;28;20183;-60
2021/09/12 01:16:17;;;;;;;6.50;5.13;;;;;;;15.76;100.00;96982.28;4996987;28;20180;-60
2021/09/12 01:18:43;;;;;;;4.93;4.53;;;;;;;15.79;100.00;96985.22;5006211;28;20180;-59
2021/09/12 01:21:15;;;;;;;5.27;4.60;;;;;;;15.65;100.00;96985.91;5004650;28;20287;-59
2021/09/12 01:23:41;;;;;;;5.83;5.00;;;;;;;15.70;100.00;96983.31;5011169;28;20186;-60
2021/09/12 01:26:06;;;;;;;5.80;5.10;;;;;;;15.77;100.00;96975.97;5006643;28;20218;-59
2021/09/12 01:28:32;;;;;;;6.00;4.90;;;;;;;15.78;100.00;96972.25;5005062;28;20215;-60
2021/09/12 01:30:59;;;;;;;5.10;4.70;;;;;;;15.72;100.00;96978.53;5011261;28;20191;-59
2021/09/12 01:33:24;;;;;;;5.43;4.93;;;;;;;15.70;100.00;96970.88;4999536;28;20191;-60
2021/09/12 01:35:50;;;;;;;5.50;4.63;;;;;;;15.55;100.00;96967.34;5012283;28;20310;-60
2021/09/12 01:38:15;;;;;;;6.30;5.00;;;;;;;15.59;100.00;96971.06;5010104;28;21493;-60
2021/09/12 01:40:41;;;;;;;8.53;4.67;;;;;;;15.56;100.00;96982.13;5006202;28;20749;-59
2021/09/12 01:43:06;;;;;;;6.63;4.40;;;;;;;15.55;100.00;96981.31;5013302;28;20718;-60
2021/09/12 01:45:32;;;;;;;5.13;4.40;;;;;;;15.53;100.00;96980.00;4999209;28;20264;-61
2021/09/12 01:48:00;;;;;;;4.70;4.17;;;;;;;15.71;100.00;96979.63;5015308;28;20238;-60
2021/09/12 01:50:27;;;;;;;4.97;4.47;;;;;;;15.66;100.00;96976.94;5011218;28;20229;-59
2021/09/12 01:52:53;;;;;;;4.93;4.43;;;;;;;15.64;100.00;96987.75;5010312;28;20200;-59
2021/09/12 01:55:18;;;;;;;4.93;4.43;;;;;;;15.48;100.00;96970.16;5000730;28;20676;-64
2021/09/12 01:57:44;;;;;;;5.03;4.40;;;;;;;15.41;100.00;96974.84;5008216;28;20183;-60
2021/09/12 02:00:10;;;;;;;4.87;4.43;;;;;;;15.38;100.00;96972.69;4999760;28;20192;-60
2021/09/12 02:02:35;;;;;;;4.60;4.20;;;;;;;15.46;100.00;96968.81;5011305;28;20722;-60
2021/09/12 02:05:02;;;;;;;4.47;4.07;;;;;;;15.44;100.00;96970.91;5001323;28;20541;-62
2021/09/12 02:07:27;;;;;;;5.13;4.63;;;;;;;15.47;100.00;96973.84;5007884;28;20357;-60
2021/09/12 02:09:53;;;;;;;4.97;4.40;;;;;;;15.41;100.00;96974.84;5000679;28;20224;-65
2021/09/12 02:12:18;;;;;;;4.30;3.90;;;;;;;15.38;100.00;96975.34;5000446;28;20220;-60
2021/09/12 02:14:44;;;;;;;4.73;4.33;;;;;;;15.30;100.00;96967.91;5010117;28;20180;-60
2021/09/12 02:17:09;;;;;;;5.47;4.67;;;;;;;15.20;100.00;96971.25;5010531;28;20775;-59
2021/09/12 02:19:34;;;;;;;4.57;4.17;;;;;;;15.18;100.00;96969.91;5009676;28;20191;-60
2021/09/12 02:22:00;;;;;;;5.33;4.83;;;;;;;15.23;100.00;96967.31;5008102;28;20269;-67
2021/09/12 02:24:25;;;;;;;5.43;4.43;;;;;;;15.30;100.00;96973.97;5003414;28;20175;-60
2021/09/12 02:26:51;;;;;;;5.30;4.80;;;;;;;15.40;100.00;96970.63;5004072;28;20267;-60
2021/09/12 02:29:16;;;;;;;4.93;4.47;;;;;;;15.36;100.00;96972.19;5009863;28;20274;-60
2021/09/12 02:31:41;;;;;;;4.80;4.30;;;;;;;15.31;100.00;96972.94;4997389;28;20214;-60
2021/09/12 02:34:07;;;;;;;5.20;4.70;;;;;;;15.31;100.00;96975.59;5010015;28;20621;-60
2021/09/12 02:36:32;;;;;;;5.20;4.70;;;;;;;15.24;100.00;96963.63;4996076;28;20181;-60
2021/09/12 02:38:57;;;;;;;5.30;4.80;;;;;;;15.33;100.00;96967.38;5007607;28;20229;-60
2021/09/12 02:41:23;;;;;;;5.10;4.67;;;;;;;15.22;100.00;96963.88;5004420;28;20636;-60
2021/09/12 02:43:48;;;;;;;5.73;4.43;;;;;;;15.14;100.00;96956.41;5000745;28;20271;-60
2021/09/12 02:46:14;;;;;;;5.23;4.00;;;;;;;15.14;100.00;96952.97;5002273;28;20175;-61
2021/09/12 02:48:39;;;;;;;5.00;4.50;;;;;;;15.08;100.00;96952.13;4998970;28;20188;-60
2021/09/12 02:51:05;;;;;;;5.07;4.57;;;;;;;15.07;100.00;96953.19;5005250;28;20551;-60
2021/09/12 02:53:30;;;;;;;5.10;4.40;;;;;;;15.16;100.00;96949.03;4999172;28;20183;-60
2021/09/12 02:55:56;;;;;;;4.83;4.43;;;;;;;15.19;100.00;96947.75;5002624;28;20275;-60
2021/09/12 02:58:21;;;;;;;5.53;4.37;;;;;;;15.14;100.00;96950.34;4999218;28;20188;-60
2021/09/12 03:00:46;;;;;;;5.83;4.70;;;;;;;15.04;100.00;96951.06;5004081;28;20267;-60
2021/09/12 03:03:12;;;;;;;5.77;5.00;;;;;;;14.96;100.00;96956.78;5009165;28;20198;-63
2021/09/12 03:05:37;;;;;;;5.07;4.57;;;;;;;14.98;100.00;96962.59;5001289;28;20185;-60
2021/09/12 03:08:03;;;;;;;5.77;4.73;;;;;;;15.02;100.00;96950.50;4995701;28;20195;-61
2021/09/12 03:10:28;;;;;;;4.90;4.40;;;;;;;15.01;100.00;96956.81;4998955;28;20187;-60
2021/09/12 03:12:54;;;;;;;5.10;4.60;;;;;;;14.96;100.00;96957.56;5013333;28;20199;-60
2021/09/12 03:15:19;;;;;;;5.63;4.70;;;;;;;15.03;100.00;96962.66;5003863;28;20667;-66
2021/09/12 03:17:45;;;;;;;5.47;4.53;;;;;;;14.94;100.00;96964.13;4999636;28;20191;-62
2021/09/12 03:20:11;;;;;;;4.97;4.47;;;;;;;15.04;100.00;96960.81;5001627;28;20195;-60
2021/09/12 03:22:36;;;;;;;5.10;4.60;;;;;;;14.94;100.00;96962.28;5006132;28;20183;-60
2021/09/12 03:25:02;;;;;;;5.90;4.43;;;;;;;14.98;100.00;96959.97;5005489;28;20179;-60
2021/09/12 03:27:28;;;;;;;5.40;4.67;;;;;;;14.93;100.00;96959.91;5005456;28;20219;-60
2021/09/12 03:29:53;;;;;;;4.43;4.03;;;;;;;15.07;99.52;96961.09;4998725;28;20668;-62
2021/09/12 03:32:19;;;;;;;5.40;4.60;;;;;;;15.04;99.40;96958.97;5004310;28;20215;-60
2021/09/12 03:34:44;;;;;;;5.50;4.77;;;;;;;14.92;100.00;96955.69;5007680;28;20225;-61
2021/09/12 03:37:09;;;;;;;4.63;4.23;;;;;;;14.88;100.00;96954.56;5004566;28;20179;-60
2021/09/12 03:39:35;;;;;;;4.50;4.10;;;;;;;14.85;100.00;96947.16;5005361;28;20223;-60
2021/09/12 03:42:00;;;;;;;4.67;4.23;;;;;;;14.83;100.00;96949.25;5012151;28;20191;-64
2021/09/12 03:44:26;;;;;;;5.87;4.37;;;;;;;14.89;99.90;96949.03;4999882;28;20180;-61
2021/09/12 03:46:51;;;;;;;4.20;3.80;;;;;;;14.88;99.96;96944.81;5006979;28;20672;-61
2021/09/12 03:49:16;;;;;;;4.80;4.30;;;;;;;14.84;100.00;96943.72;4997736;28;20186;-61
2021/09/12 03:51:42;;;;;;;4.50;4.10;;;;;;;14.87;99.88;96942.44;5007421;28;20605;-60
2021/09/12 03:54:07;;;;;;;4.63;4.07;;;;;;;14.88;99.76;96946.66;4997044;28;20644;-61
2021/09/12 03:56:33;;;;;;;5.10;4.20;;;;;;;14.78;100.00;96947.34;5010058;28;20274;-60
2021/09/12 03:58:58;;;;;;;7.70;4.20;;;;;;;14.67;100.00;96950.94;5000826;28;20210;-60
2021/09/12 04:01:23;;;;;;;4.77;4.27;;;;;;;14.73;99.90;96946.50;5012701;28;20191;-61
2021/09/12 04:03:49;;;;;;;4.33;3.93;;;;;;;14.73;100.00;96955.22;5001557;28;20188;-61
2021/09/12 04:06:14;;;;;;;4.90;4.43;;;;;;;14.70;100.00;96947.00;5007239;28;20183;-61
2021/09/12 04:08:40;;;;;;;4.10;3.70;;;;;;;14.63;100.00;96954.31;4996791;28;20187;-61
2021/09/12 04:11:05;;;;;;;4.37;3.97;;;;;;;14.64;100.00;96942.72;5009854;28;20625;-60
2021/09/12 04:13:30;;;;;;;6.37;4.17;;;;;;;14.56;100.00;96947.41;5005074;28;20183;-60
2021/09/12 04:15:56;;;;;;;4.27;3.90;;;;;;;14.62;100.00;96939.53;4998860;28;20180;-61
2021/09/12 04:18:21;;;;;;;4.90;4.40;;;;;;;14.63;100.00;96949.03;5009705;28;20593;-61
2021/09/12 04:20:47;;;;;;;4.97;3.97;;;;;;;14.67;99.82;96947.50;4994114;28;20184;-60
2021/09/12 04:23:12;;;;;;;4.57;4.03;;;;;;;14.62;100.00;96944.81;5001795;28;20210;-61
2021/09/12 04:25:37;;;;;;;6.27;4.37;;;;;;;14.58;100.00;96944.50;5001746;28;20270;-60
2021/09/12 04:28:03;;;;;;;4.53;4.13;;;;;;;14.59;100.00;96948.75;4994193;28;20195;-60
2021/09/12 04:30:28;;;;;;;5.60;4.53;;;;;;;14.48;100.00;96947.06;4997349;28;20184;-60
2021/09/12 04:32:54;;;;;;;5.07;4.30;;;;;;;14.47;100.00;96945.44;5004189;28;20291;-60
2021/09/12 04:35:19;;;;;;;4.53;4.10;;;;;;;14.47;100.00;96946.25;4994051;28;20625;-60
2021/09/12 04:37:44;;;;;;;4.50;4.10;;;;;;;14.46;100.00;96947.28;5009148;28;20349;-60
2021/09/12 04:40:10;;;;;;;6.50;4.13;;;;;;;14.49;100.00;96948.63;4997359;28;20227;-60
2021/09/12 04:42:35;;;;;;;4.43;4.03;;;;;;;14.46;100.00;96949.94;5006143;28;20196;-61
2021/09/12 04:45:01;;;;;;;6.10;4.83;;;;;;;14.47;100.00;96951.53;4993979;28;20284;-60
2021/09/12 04:47:26;;;;;;;4.47;4.07;;;;;;;14.57;98.99;96945.56;5006554;28;20306;-66
2021/09/12 04:49:52;;;;;;;4.73;4.23;;;;;;;14.46;99.93;96951.75;5004417;28;20197;-61
2021/09/12 04:52:17;;;;;;;4.70;3.87;;;;;;;14.39;100.00;96954.59;4997209;28;20671;-61
2021/09/12 04:54:43;;;;;;;6.43;4.60;;;;;;;14.49;99.50;96951.25;5004127;28;20656;-60
2021/09/12 04:57:08;;;;;;;5.17;4.67;;;;;;;14.46;99.46;96952.56;5004269;28;20230;-61
2021/09/12 04:59:36;;;;;;;5.23;4.73;;;;;;;14.41;99.86;96960.41;5004290;28;20555;-61
2021/09/12 05:02:01;;;;;;;5.63;4.43;;;;;;;14.39;99.86;96956.41;4996939;28;20176;-62
2021/09/12 05:04:27;;;;;;;5.17;4.63;;;;;;;14.42;100.00;96959.38;4998475;28;20694;-60
2021/09/12 05:06:52;;;;;;;5.07;4.53;;;;;;;14.45;100.00;96966.78;5004374;28;20184;-60
2021/09/12 05:09:17;;;;;;;6.13;4.47;;;;;;;14.53;99.78;96961.09;5002007;28;20529;-60
2021/09/12 05:11:43;;;;;;;4.43;4.13;;;;;;;14.62;99.68;96964.06;4993870;28;20243;-60
2021/09/12 05:14:08;;;;;;;4.90;4.40;;;;;;;14.69;99.90;96967.31;5008758;28;20179;-61
2021/09/12 05:16:34;;;;;;;4.83;4.33;;;;;;;14.91;98.10;96954.09;5004618;28;20184;-60
2021/09/12 05:19:00;;;;;;;5.83;4.27;;;;;;;15.07;97.38;96961.09;4993247;28;20219;-60
2021/09/12 05:21:25;;;;;;;5.90;3.90;;;;;;;15.18;96.55;96961.97;4998917;28;20223;-60
2021/09/12 05:23:50;;;;;;;4.27;3.87;;;;;;;15.36;95.74;96962.41;4994208;28;20599;-60
2021/09/12 05:26:16;;;;;;;4.53;3.83;;;;;;;15.47;95.05;96960.66;4991950;28;20217;-60
2021/09/12 05:28:41;;;;;;;4.00;3.60;;;;;;;15.70;93.38;96962.97;4997364;28;20179;-61
2021/09/12 05:31:07;;;;;;;5.47;3.90;;;;;;;15.93;92.10;96966.28;5004215;28;20188;-67
2021/09/12 05:33:32;;;;;;;3.77;3.47;;;;;;;16.04;90.64;96968.72;4993512;28;20265;-60
2021/09/12 05:35:57;;;;;;;5.27;3.40;;;;;;;16.29;89.17;96969.88;5004286;28;20656;-61
2021/09/12 05:38:23;;;;;;;3.67;3.37;;;;;;;16.50;87.68;96968.91;5008106;28;20219;-61
2021/09/12 05:40:49;;;;;;;3.93;3.37;;;;;;;16.55;87.55;96971.59;4982561;28;20669;-61
2021/09/12 05:43:15;;;;;;;3.50;3.20;;;;;;;16.30;89.24;96968.81;4985205;28;20204;-61
2021/09/12 05:45:41;;;;;;;5.17;3.40;;;;;;;16.59;88.83;96967.38;4986196;28;20192;-61
2021/09/12 05:48:06;;;;;;;6.17;3.73;;;;;;;16.85;86.96;96973.53;4985987;28;20192;-61
2021/09/12 05:50:32;;;;;;;4.67;3.23;;;;;;;17.02;85.85;96982.84;4984094;28;20669;-61
2021/09/12 05:52:57;;;;;;;3.23;3.03;;;;;;;17.17;84.72;96975.97;4985699;28;20215;-61
2021/09/12 05:55:23;;;;;;;3.40;3.10;;;;;;;17.30;84.22;96972.81;4984441;28;20184;-61
2021/09/12 05:57:48;;;;;;;5.53;3.43;;;;;;;17.35;83.55;96978.91;4985086;28;20176;-61
2021/09/12 06:00:14;;;;;;;3.17;2.97;;;;;;;17.26;83.68;96972.56;4985466;28;20262;-62
2021/09/12 06:02:40;;;;;;;3.70;3.40;;;;;;;17.29;83.11;96979.16;4985917;28;20187;-61
2021/09/12 06:05:07;;;;;;;3.53;3.23;;;;;;;17.32;82.42;96982.09;4993215;28;20184;-61
2021/09/12 06:07:32;;;;;;;3.57;3.27;;;;;;;17.33;82.27;96978.38;4978291;28;20195;-60
2021/09/12 06:09:58;;;;;;;3.70;3.40;;;;;;;17.46;81.50;96987.66;4983335;28;20275;-61
2021/09/12 06:12:25;;;;;;;4.50;3.60;;;;;;;17.42;81.43;96987.41;4984780;28;20204;-60
2021/09/12 06:14:50;;;;;;;3.47;3.13;;;;;;;17.22;81.77;96990.00;4989486;28;20701;-60
2021/09/12 06:17:15;;;;;;;3.17;2.90;;;;;;;17.02;81.83;96992.63;4979912;28;20267;-60
2021/09/12 06:19:41;;;;;;;3.30;3.00;;;;;;;17.20;80.10;96986.06;4990300;28;20553;-60
2021/09/12 06:22:06;;;;;;;2.80;2.60;;;;;;;17.21;79.86;96990.28;4982687;28;20249;-61
2021/09/12 06:24:33;;;;;;;3.93;3.17;;;;;;;16.95;80.68;96992.88;4987704;28;20523;-61
2021/09/12 06:26:59;;;;;;;3.83;3.47;;;;;;;17.01;80.58;96991.84;4981337;28;20188;-60
2021/09/12 06:29:25;;;;;;;3.87;3.53;;;;;;;17.26;79.73;96987.66;4977982;28;20328;-60
2021/09/12 06:31:50;;;;;;;4.30;3.90;;;;;;;17.48;78.83;96982.09;4990526;28;20200;-60
2021/09/12 06:34:15;;;;;;;3.93;3.53;;;;;;;17.63;78.12;96985.56;4987260;28;20192;-61
2021/09/12 06:36:41;;;;;;;5.33;3.60;;;;;;;17.79;78.19;96973.06;4983958;28;20280;-60
2021/09/12 06:39:06;;;;;;;6.00;3.70;;;;;;;18.03;76.90;96976.75;4982183;28;20220;-60
2021/09/12 06:41:32;;;;;;;4.33;3.70;;;;;;;18.00;76.70;96971.19;5009517;28;20199;-60
2021/09/12 06:43:57;;;;;;;4.10;3.70;;;;;;;18.13;77.24;96974.06;5007390;28;20191;-60
2021/09/12 06:46:23;;;;;;;3.95;3.65;;;;;;;18.11;77.89;96976.19;4997442;28;20573;-60
2021/09/12 06:48:48;;;;;;;6.47;3.50;;;;;;;18.19;78.68;96985.47;5006828;28;20184;-60
2021/09/12 06:51:13;;;;;;;4.40;3.85;;;;;;;18.17;77.00;96984.94;4996925;28;20549;-60
2021/09/12 06:53:39;;;;;;;3.43;3.13;;;;;;;18.31;76.24;96985.16;5006512;28;20188;-60
2021/09/12 06:56:04;;;;;;;4.10;3.70;;;;;;;18.25;76.52;96985.19;5010538;28;20191;-60
2021/09/12 06:58:31;;;;;;;3.50;3.20;;;;;;;18.48;76.02;96993.59;4997005;28;20187;-60
2021/09/12 07:00:57;;;;;;;3.27;2.97;;;;;;;18.34;76.25;96998.69;5009512;28;20644;-60
2021/09/12 07:03:23;;;;;;;3.35;3.05;;;;;;;18.62;75.46;96997.28;5009181;28;20198;-60
2021/09/12 07:05:49;;;;;;;3.78;3.47;;;;;;;18.71;75.16;97000.97;5004617;28;20183;-63
2021/09/12 07:08:14;;;;;;;3.45;3.15;;;;;;;18.67;75.35;97005.22;5001556;28;20523;-61
2021/09/12 07:10:40;;;;;;;3.50;3.20;;;;;;;18.55;75.96;97008.22;5008766;28;20560;-60
2021/09/12 07:13:06;;;;;;;3.65;3.35;;;;;;;18.64;75.43;97000.47;5012818;28;20199;-61
2021/09/12 07:15:31;;;;;;;3.80;3.35;;;;;;;18.75;75.33;96998.56;5012476;28;20187;-60
2021/09/12 07:17:56;;;;;;;3.70;3.40;;;;;;;18.57;76.54;97005.25;5011768;28;20190;-61
2021/09/12 07:20:22;;;;;;;3.75;3.45;;;;;;;18.59;76.84;97000.47;4998728;28;20183;-61
2021/09/12 07:22:47;;;;;;;4.95;3.45;;;;;;;18.86;75.72;97000.88;5012856;28;20317;-61
2021/09/12 07:25:13;;;;;;;3.40;3.10;;;;;;;18.97;75.53;97006.94;5003378;28;20184;-61
2021/09/12 07:27:39;;;;;;;4.38;3.33;;;;;;;19.14;74.46;97001.25;4993922;28;20200;-61
2021/09/12 07:30:05;;;;;;;3.78;3.47;;;;;;;19.22;74.38;97011.31;5009990;28;20195;-61
2021/09/12 07:32:30;;;;;;;3.67;3.38;;;;;;;19.17;74.38;97012.13;4995635;28;20274;-62
2021/09/12 07:34:56;;;;;;;4.57;3.47;;;;;;;19.43;73.63;97020.72;5003047;28;20633;-61
2021/09/12 07:37:21;;;;;;;4.35;3.95;;;;;;;19.60;72.43;97015.84;5001007;28;20649;-62
2021/09/12 07:39:47;;;;;;;3.55;3.25;;;;;;;19.64;73.00;97014.22;4998549;28;20278;-63
2021/09/12 07:42:12;;;;;;;3.75;3.33;;;;;;;19.67;71.86;97020.84;4999080;28;21804;-62
2021/09/12 07:44:37;;;;;;;3.28;2.63;;;;;;;19.79;70.85;97014.06;4998721;28;20190;-59
2021/09/12 07:47:03;;;;;;;3.28;2.80;;;;;;;19.99;69.90;97013.13;5005289;28;20184;-61
2021/09/12 07:49:28;;;;;;;3.53;3.00;;;;;;;19.99;70.39;97015.78;4993069;28;20250;-62
2021/09/12 07:51:53;;;;;;;3.20;2.90;;;;;;;20.03;69.77;97016.00;5003429;28;20675;-61
2021/09/12 07:54:19;;;;;;;3.30;2.78;;;;;;;20.25;69.03;97016.31;5012358;28;20585;-61
2021/09/12 07:56:45;;;;;;;4.55;2.95;;;;;;;20.19;68.61;97022.75;5008247;28;20184;-62
2021/09/12 07:59:10;;;;;;;3.45;2.70;;;;;;;20.25;68.46;97021.63;5009537;28;20179;-62
2021/09/12 08:01:36;;;;;;;4.15;3.10;;;;;;;20.21;68.42;97023.28;5000486;28;20205;-62
2021/09/12 08:04:01;;;;;;;3.67;3.00;;;;;;;20.43;67.83;97026.25;5008894;28;20309;-62
2021/09/12 08:06:27;;;;;;;3.53;2.70;;;;;;;20.69;67.27;97027.56;4998569;28;20194;-60
2021/09/12 08:08:52;;;;;;;2.95;2.75;;;;;;;20.75;67.13;97039.72;5004081;28;20231;-61
2021/09/12 08:11:17;;;;;;;3.63;3.25;;;;;;;20.70;67.43;97026.47;5005179;28;20275;-61
2021/09/12 08:13:43;;;;;;;2.60;2.40;;;;;;;20.91;66.65;97031.53;4999405;28;20584;-62
2021/09/12 08:16:08;;;;;;;3.33;3.03;;;;;;;20.92;66.97;97030.47;5004988;28;20190;-62
2021/09/12 08:18:35;;;;;;;3.33;2.83;;;;;;;20.75;67.40;97033.59;5010151;28;20592;-74
2021/09/12 08:21:00;;;;;;;4.60;3.00;;;;;;;20.84;67.93;97037.25;4999625;28;20190;-61
2021/09/12 08:23:26;;;;;;;3.45;3.15;;;;;;;20.83;67.05;97038.31;5001079;28;20501;-61
2021/09/12 08:25:52;;;;;;;5.00;3.40;;;;;;;20.85;67.38;97040.69;4995732;28;20686;-62
2021/09/12 08:28:17;;;;;;;4.82;3.58;;;;;;;20.52;67.33;97043.19;5010695;28;20234;-62
2021/09/12 08:30:43;;;;;;;9.10;3.50;;;;;;;20.77;67.86;97036.00;5010830;28;20274;-63
2021/09/12 08:33:11;;;;;;;3.55;3.25;;;;;;;20.99;67.66;97044.25;5000197;28;20199;-67
2021/09/12 08:35:36;;;;;;;3.33;3.03;;;;;;;20.93;66.73;97042.72;4999627;28;20195;-62
2021/09/12 08:38:02;;;;;;;3.20;2.85;;;;;;;21.00;66.60;97046.63;5007916;28;20184;-62
2021/09/12 08:40:27;;;;;;;3.45;3.15;;;;;;;21.00;66.96;97043.16;4997145;28;20228;-66
2021/09/12 08:42:53;;;;;;;4.72;3.10;;;;;;;21.00;66.73;97046.63;5000363;28;20196;-61
2021/09/12 08:45:22;;;;;;;3.55;3.08;;;;;;;21.15;66.64;97050.97;5004209;28;20478;-62
2021/09/12 08:47:48;;;;;;;3.13;2.90;;;;;;;21.10;65.87;97057.16;5006929;28;20194;-62
2021/09/12 08:50:13;;;;;;;2.95;2.75;;;;;;;21.10;64.92;97057.16;5004795;28;20652;-62
2021/09/12 08:52:39;;;;;;;2.55;2.35;;;;;;;21.11;63.50;97058.75;5001808;28;20207;-62
2021/09/12 08:55:04;;;;;;;3.10;2.80;;;;;;;21.18;62.75;97047.72;4994053;28;20192;-62
2021/09/12 08:57:30;;;;;;;2.60;2.40;;;;;;;21.07;65.08;97043.59;5003140;28;20555;-62
2021/09/12 08:59:55;;;;;;;3.60;3.30;;;;;;;21.07;64.88;97049.72;4998589;28;20233;-62
2021/09/12 09:02:27;;;;;;;4.75;2.50;;;;;;;21.20;63.83;97053.56;5003344;28;20206;-61
2021/09/12 09:05:01;;;;;;;2.53;2.40;;;;;;;21.25;64.36;97048.16;4994247;28;20198;-62
2021/09/12 09:07:32;;;;;;;5.03;2.92;;;;;;;21.18;64.11;97045.06;4997829;28;20183;-63
2021/09/12 09:09:59;;;;;;;2.88;2.55;;;;;;;21.13;63.81;97042.44;5005645;28;20184;-65
2021/09/12 09:12:36;;;;;;;2.88;2.63;;;;;;;21.11;64.25;97044.63;4994172;28;20697;-62
2021/09/12 09:15:14;;;;;;;2.88;2.67;;;;;;;21.18;63.83;97042.41;4998599;28;20195;-67
2021/09/12 09:17:48;;;;;;;2.95;2.75;;;;;;;21.18;64.08;97046.97;5008087;28;20171;-62
2021/09/12 09:20:15;;;;;;;4.15;3.20;;;;;;;21.25;63.64;97042.84;4998375;28;20180;-62
2021/09/12 09:22:43;;;;;;;2.72;2.53;;;;;;;21.18;64.68;97038.97;5004393;28;20644;-62
2021/09/12 09:25:11;;;;;;;2.60;2.40;;;;;;;21.11;64.68;97033.97;5005196;28;20191;-62
2021/09/12 09:28:10;;;;;;;4.13;3.83;;;;;;;20.41;66.28;97028.41;5011432;28;20188;-62
2021/09/12 09:30:48;;;;;;;2.78;2.58;;;;;;;20.67;66.65;97020.94;4964583;28;20281;-62
2021/09/12 09:33:27;;;;;;;3.17;2.88;;;;;;;20.91;67.59;97027.00;4999350;28;20207;-62
2021/09/12 09:35:58;;;;;;;3.53;3.17;;;;;;;20.40;68.66;97023.34;5012196;28;20180;-63
2021/09/12 09:38:32;;;;;;;2.70;2.50;;;;;;;20.71;66.73;97017.41;5001094;28;20639;-62
2021/09/12 09:40:57;;;;;;;2.90;2.53;;;;;;;20.71;66.39;97017.41;5002220;28;20720;-63
2021/09/12 09:43:22;;;;;;;2.30;2.17;;;;;;;20.85;67.53;97016.69;5014193;28;20274;-63
2021/09/12 09:45:48;;;;;;;3.30;2.95;;;;;;;20.64;68.20;97016.16;5000239;28;20195;-63
2021/09/12 09:48:14;;;;;;;2.50;2.40;;;;;;;20.86;66.10;97015.63;5006965;28;20591;-63
2021/09/12 09:50:42;;;;;;;3.22;2.40;;;;;;;20.61;66.39;97014.09;5010246;28;20207;-64
2021/09/12 09:53:11;;;;;;;2.53;2.33;;;;;;;20.81;65.78;97013.81;5005091;28;20199;-63
2021/09/12 09:55:36;;;;;;;2.50;2.30;;;;;;;20.41;66.53;97015.09;5007253;28;20270;-63
2021/09/12 09:58:08;;;;;;;2.97;2.65;;;;;;;20.13;67.99;97013.22;4999818;28;20278;-63
2021/09/12 10:00:34;;;;;;;2.95;2.72;;;;;;;20.12;67.19;97016.97;5012568;28;20191;-63
2021/09/12 10:03:01;;;;;;;2.47;2.28;;;;;;;19.92;68.19;97016.09;5004034;28;20192;-60
2021/09/12 10:05:27;;;;;;;2.05;1.80;;;;;;;20.13;66.80;97018.56;5000377;28;20188;-61
2021/09/12 10:07:54;;;;;;;2.35;2.15;;;;;;;20.00;67.38;97019.22;5006543;28;20184;-61
2021/09/12 10:10:21;;;;;;;1.73;1.63;;;;;;;19.70;67.24;97017.63;5011226;28;20278;-61
2021/09/12 10:12:54;;;;;;;1.90;1.80;;;;;;;20.00;66.14;97021.91;5005802;28;20250;-60
2021/09/12 10:15:25;;;;;;;1.70;1.60;;;;;;;19.83;65.29;97017.00;5001585;28;20187;-60
2021/09/12 10:17:52;;;;;;;2.08;1.90;;;;;;;20.19;65.82;97020.88;5002592;28;20187;-60
2021/09/12 10:20:23;;;;;;;2.05;1.95;;;;;;;20.77;64.35;97018.16;5008516;28;20640;-61
2021/09/12 10:22:57;;;;;;;2.05;1.90;;;;;;;20.91;62.94;97016.34;4997984;28;20230;-61
2021/09/12 10:25:28;;;;;;;2.30;2.10;;;;;;;20.62;63.57;97011.13;5008484;28;20175;-60
2021/09/12 10:27:56;;;;;;;3.90;1.90;;;;;;;20.70;62.65;97007.03;5001410;28;20172;-60
2021/09/12 10:30:38;;;;;;;1.70;1.60;;;;;;;20.92;61.57;97001.16;4999786;28;20196;-61
2021/09/12 10:33:11;;;;;;;3.97;2.00;;;;;;;21.23;61.72;97014.91;5002400;28;20672;-61
2021/09/12 10:35:45;;;;;;;1.77;1.67;;;;;;;21.43;59.59;97003.91;5006997;28;20179;-60
2021/09/12 10:38:11;;;;;;;2.15;1.95;;;;;;;21.40;60.04;96999.94;4999778;28;20203;-62
2021/09/12 10:40:49;;;;;;;1.90;1.80;;;;;;;21.63;58.86;97000.91;5002597;28;20234;-60
2021/09/12 10:43:26;;;;;;;2.22;2.10;;;;;;;21.77;59.15;97000.97;5004497;28;20192;-65
2021/09/12 10:46:01;;;;;;;1.90;1.75;;;;;;;21.98;58.07;96996.88;5004418;28;20183;-61
2021/09/12 10:48:37;;;;;;;2.47;1.77;;;;;;;22.15;56.98;96996.31;5000588;28;20270;-62
2021/09/12 10:51:04;;;;;;;2.72;2.10;;;;;;;22.06;57.06;96992.75;5001146;28;20603;-62
2021/09/12 10:56:13;;;;;;;1.70;1.60;;;;;;;21.60;55.45;96990.03;5009512;28;20276;-61
2021/09/12 10:58:39;;;;;;;1.73;1.63;;;;;;;21.08;57.73;96999.84;5002735;28;20271;-61
2021/09/12 11:01:06;;;;;;;2.08;1.70;;;;;;;20.75;57.64;96996.31;4999365;28;20183;-62
2021/09/12 11:03:34;;;;;;;1.83;1.60;;;;;;;21.00;57.30;96988.00;5008021;28;20787;-61
2021/09/12 11:06:00;;;;;;;1.77;1.48;;;;;;;21.29;58.04;96993.19;5005333;28;20656;-61
2021/09/12 11:08:32;;;;;;;1.67;1.58;;;;;;;21.49;57.78;96982.22;4998584;28;20535;-73
2021/09/12 11:10:59;;;;;;;2.25;1.70;;;;;;;21.79;57.62;96982.81;4998142;28;20633;-61
2021/09/12 11:13:26;;;;;;;1.95;1.65;;;;;;;22.14;56.36;96982.19;5009839;28;20230;-61
2021/09/12 11:15:54;;;;;;;1.75;1.65;;;;;;;22.45;55.79;96981.59;5006290;28;20187;-63
2021/09/12 11:18:20;;;;;;;1.45;1.42;;;;;;;22.25;55.13;96980.91;5006344;28;20207;-61
2021/09/12 11:20:47;;;;;;;1.90;1.80;;;;;;;21.64;55.67;96973.16;4997847;28;20226;-62
2021/09/12 11:23:40;;;;;;;3.20;1.85;;;;;;;21.86;57.05;96970.63;5004233;28;20556;-64
2021/09/12 11:26:05;;;;;;;1.48;1.38;;;;;;;22.29;56.31;96973.88;5004981;28;20279;-61
2021/09/12 11:28:33;;;;;;;2.05;1.67;;;;;;;22.43;55.76;96962.41;5002218;28;20605;-61
2021/09/12 11:31:01;;;;;;;2.10;1.90;;;;;;;22.44;55.07;96967.44;5011079;28;20187;-61